Time;durP1;ratioP1;P1;durP2;ratioP2;P2;SDS_P1;SDS_P2;PMS_P1;PMS_P2;Temp;Humidity;BMP_temperature;BMP_pressure;BME280_temperature;BME280_humidity;BME280_pressure;Samples;Min_cycle;Max_cycle;Signal;HPM_P1;HPM_P2
2021/09/12 00:00:35;;;;;;;5.75;3.67;;;;;;;22.53;63.61;101733.03;5057887;28;20273;-66
2021/09/12 00:03:00;;;;;;;6.57;4.25;;;;;;;22.52;63.67;101734.84;5057823;28;20029;-66
2021/09/12 00:05:25;;;;;;;5.85;3.83;;;;;;;22.50;63.72;101731.47;5055986;28;20028;-65
2021/09/12 00:07:51;;;;;;;5.80;3.80;;;;;;;22.51;63.91;101735.81;5056282;28;20044;-66
2021/09/12 00:10:16;;;;;;;5.32;3.75;;;;;;;22.50;63.61;101739.44;5056895;28;20043;-66
2021/09/12 00:12:42;;;;;;;9.90;4.40;;;;;;;22.50;63.38;101741.28;5055544;28;20048;-66
2021/09/12 00:15:10;;;;;;;5.65;3.65;;;;;;;22.48;63.50;101746.72;5054387;28;20079;-66
2021/09/12 00:17:35;;;;;;;6.03;3.53;;;;;;;22.49;63.15;101745.72;5054349;28;20059;-66
2021/09/12 00:20:01;;;;;;;5.20;3.70;;;;;;;22.48;63.38;101745.84;5054882;28;20028;-66
2021/09/12 00:22:26;;;;;;;6.15;3.97;;;;;;;22.48;63.42;101737.88;5055218;28;20028;-65
2021/09/12 00:24:52;;;;;;;6.07;3.70;;;;;;;22.46;63.09;101736.22;5053747;28;20380;-66
2021/09/12 00:27:17;;;;;;;5.72;3.60;;;;;;;22.44;63.04;101735.50;5055230;28;20025;-66
2021/09/12 00:29:45;;;;;;;6.90;3.90;;;;;;;22.46;63.32;101738.88;5054903;28;20029;-65
2021/09/12 00:32:11;;;;;;;6.30;3.70;;;;;;;22.45;63.33;101736.34;5053600;28;20122;-66
2021/09/12 00:34:36;;;;;;;6.25;3.90;;;;;;;22.45;63.29;101733.69;5054655;28;20052;-66
2021/09/12 00:37:02;;;;;;;6.28;3.40;;;;;;;22.45;62.86;101736.34;5054292;28;20107;-66
2021/09/12 00:39:29;;;;;;;4.90;3.15;;;;;;;22.42;63.01;101729.47;5054002;28;20024;-66
2021/09/12 00:41:58;;;;;;;6.57;3.70;;;;;;;22.43;62.84;101725.00;5054247;28;20427;-65
2021/09/12 00:44:26;;;;;;;5.82;3.40;;;;;;;22.42;62.99;101724.16;5054373;28;20426;-65
2021/09/12 00:46:53;;;;;;;7.10;3.35;;;;;;;22.42;63.04;101729.47;5053144;28;20131;-66
2021/09/12 00:49:19;;;;;;;5.18;3.30;;;;;;;22.38;62.54;101716.59;5054381;28;20025;-66
2021/09/12 00:51:44;;;;;;;5.47;3.50;;;;;;;22.41;62.85;101714.53;5053838;28;20469;-66
2021/09/12 00:54:11;;;;;;;5.88;3.15;;;;;;;22.41;62.52;101716.34;5053439;28;20082;-66
2021/09/12 00:56:39;;;;;;;4.35;3.00;;;;;;;22.40;62.93;101717.31;5054416;28;20079;-65
2021/09/12 00:59:09;;;;;;;5.45;3.28;;;;;;;22.40;62.87;101719.97;5054047;28;20025;-66
2021/09/12 01:01:35;;;;;;;5.40;3.40;;;;;;;22.40;62.34;101719.97;5053519;28;20025;-66
2021/09/12 01:04:00;;;;;;;4.82;2.90;;;;;;;22.38;62.56;101714.81;5053755;28;20064;-65
2021/09/12 01:06:25;;;;;;;6.38;2.65;;;;;;;22.39;62.56;101718.28;5054063;28;20048;-66
2021/09/12 01:08:51;;;;;;;5.68;2.92;;;;;;;22.38;62.53;101714.81;5052967;28;20033;-66
2021/09/12 01:11:17;;;;;;;4.57;2.63;;;;;;;22.38;62.53;101709.50;5054185;28;20419;-65
2021/09/12 01:13:45;;;;;;;5.43;2.90;;;;;;;22.38;62.55;101708.63;5053146;28;20036;-66
2021/09/12 01:16:16;;;;;;;6.00;3.10;;;;;;;22.37;62.40;101709.63;5053791;28;20086;-65
2021/09/12 01:18:41;;;;;;;4.80;2.90;;;;;;;22.37;62.18;101709.63;5053750;28;20354;-66
2021/09/12 01:21:21;;;;;;;4.90;2.97;;;;;;;22.36;62.10;101708.75;5052863;28;20722;-65
2021/09/12 01:23:48;;;;;;;5.97;3.20;;;;;;;22.36;61.98;101705.28;5053927;28;20040;-64
2021/09/12 01:26:23;;;;;;;4.95;3.20;;;;;;;22.35;62.42;101703.56;5053921;28;20021;-66
2021/09/12 01:28:49;;;;;;;5.18;3.05;;;;;;;22.35;62.23;101703.56;5052744;28;20050;-67
2021/09/12 01:31:33;;;;;;;5.47;2.97;;;;;;;22.34;62.27;101705.41;5053696;28;20391;-65
2021/09/12 01:34:01;;;;;;;5.85;3.17;;;;;;;22.35;62.15;101706.22;5053390;28;20476;-66
2021/09/12 01:36:29;;;;;;;4.95;2.75;;;;;;;22.34;61.99;101707.22;5052936;28;20029;-66
2021/09/12 01:38:54;;;;;;;5.47;3.20;;;;;;;22.33;61.73;101703.72;5053319;28;20029;-66
2021/09/12 01:41:20;;;;;;;6.07;2.60;;;;;;;22.33;62.10;101702.88;5053529;28;20388;-66
2021/09/12 01:43:46;;;;;;;5.80;3.08;;;;;;;22.32;61.85;101704.69;5052525;28;20024;-65
2021/09/12 01:46:12;;;;;;;5.40;2.83;;;;;;;22.29;61.61;101699.63;5053293;28;20021;-65
2021/09/12 01:48:37;;;;;;;5.97;2.97;;;;;;;22.30;62.06;101700.47;5053535;28;20047;-66
2021/09/12 01:51:02;;;;;;;5.30;2.90;;;;;;;22.31;61.67;101692.38;5052410;28;20096;-66
2021/09/12 01:53:28;;;;;;;4.93;2.90;;;;;;;22.29;61.65;101691.66;5053413;28;20028;-66
2021/09/12 01:55:56;;;;;;;4.45;2.70;;;;;;;22.30;61.52;101688.03;5052049;28;20033;-66
2021/09/12 01:58:21;;;;;;;5.35;3.05;;;;;;;22.28;61.71;101687.31;5053017;28;20028;-66
2021/09/12 02:00:46;;;;;;;5.80;2.70;;;;;;;22.28;61.77;101693.44;5053252;28;20410;-65
2021/09/12 02:03:12;;;;;;;5.30;2.80;;;;;;;22.26;61.88;101686.59;5051928;28;20113;-65
2021/09/12 02:05:37;;;;;;;4.20;2.50;;;;;;;22.25;61.59;101688.41;5052664;28;20294;-65
2021/09/12 02:08:02;;;;;;;6.13;2.75;;;;;;;22.26;61.45;101695.41;5052407;28;20369;-65
2021/09/12 02:10:29;;;;;;;4.78;2.60;;;;;;;22.25;61.60;101696.34;5052046;28;20032;-65
2021/09/12 02:12:56;;;;;;;4.82;2.75;;;;;;;22.25;61.69;101698.19;5052382;28;20543;-66
2021/09/12 02:15:24;;;;;;;5.13;2.80;;;;;;;22.25;61.36;101698.19;5053000;28;20032;-65
2021/09/12 02:17:49;;;;;;;5.10;2.40;;;;;;;22.25;61.33;101698.19;5051874;28;20075;-66
2021/09/12 02:20:15;;;;;;;4.50;2.47;;;;;;;22.24;61.17;101694.69;5052844;28;20461;-66
2021/09/12 02:22:40;;;;;;;4.55;2.70;;;;;;;22.24;61.35;101692.03;5052780;28;20037;-66
2021/09/12 02:25:06;;;;;;;4.50;2.70;;;;;;;22.23;61.23;101695.66;5051531;28;20032;-66
2021/09/12 02:27:31;;;;;;;5.00;2.70;;;;;;;22.23;61.40;101700.97;5052524;28;20262;-65
2021/09/12 02:29:59;;;;;;;5.25;2.80;;;;;;;22.22;61.11;101706.41;5052440;28;20112;-65
2021/09/12 02:32:25;;;;;;;5.32;2.67;;;;;;;22.22;60.88;101703.75;5051892;28;20021;-65
2021/09/12 02:34:50;;;;;;;5.28;2.88;;;;;;;22.21;61.26;101702.94;5052292;28;20028;-65
2021/09/12 02:37:18;;;;;;;4.57;2.38;;;;;;;22.22;61.32;101703.75;5052418;28;20166;-66
2021/09/12 02:39:44;;;;;;;4.53;2.58;;;;;;;22.20;60.89;101701.22;5051690;28;20025;-66
2021/09/12 02:42:09;;;;;;;5.70;2.73;;;;;;;22.20;61.23;101703.06;5052121;28;20074;-66
2021/09/12 02:44:34;;;;;;;5.03;2.67;;;;;;;22.21;60.59;101702.09;5052432;28;20300;-64
2021/09/12 02:47:00;;;;;;;4.10;2.37;;;;;;;22.16;60.85;101693.66;5051288;28;20301;-65
2021/09/12 02:49:26;;;;;;;5.53;2.95;;;;;;;22.19;60.88;101698.72;5052705;28;20025;-66
2021/09/12 02:51:51;;;;;;;4.85;2.72;;;;;;;22.18;60.55;101705.84;5051923;28;20427;-66
2021/09/12 02:54:16;;;;;;;5.40;2.20;;;;;;;22.19;60.59;101699.56;5051426;28;20025;-65
2021/09/12 02:56:42;;;;;;;4.43;2.28;;;;;;;22.18;60.75;101705.00;5052181;28;20055;-66
2021/09/12 02:59:07;;;;;;;4.70;2.70;;;;;;;22.18;60.63;101707.66;5051333;28;20028;-65
2021/09/12 03:01:32;;;;;;;4.38;2.40;;;;;;;22.16;60.77;101705.13;5052216;28;20618;-65
2021/09/12 03:03:57;;;;;;;4.20;2.35;;;;;;;22.17;60.34;101705.97;5052061;28;20053;-66
2021/09/12 03:06:23;;;;;;;4.30;2.30;;;;;;;22.16;60.34;101702.47;5051526;28;20013;-66
2021/09/12 03:08:48;;;;;;;5.53;2.67;;;;;;;22.16;60.36;101710.44;5051385;28;20037;-66
2021/09/12 03:11:13;;;;;;;4.38;2.53;;;;;;;22.16;60.63;101709.59;5052154;28;20029;-66
2021/09/12 03:13:39;;;;;;;5.40;2.55;;;;;;;22.15;60.19;101702.63;5051503;28;20082;-66
2021/09/12 03:16:04;;;;;;;4.68;2.30;;;;;;;22.15;60.58;101707.91;5054666;28;20017;-65
2021/09/12 03:18:29;;;;;;;4.22;2.35;;;;;;;22.14;60.44;101707.06;5056181;28;20061;-66
2021/09/12 03:20:55;;;;;;;4.68;2.20;;;;;;;22.13;60.27;101707.19;5055041;28;20013;-65
2021/09/12 03:23:20;;;;;;;6.07;2.40;;;;;;;22.14;60.09;101708.88;5055904;28;20536;-66
2021/09/12 03:25:45;;;;;;;3.97;2.35;;;;;;;22.11;60.04;101704.66;5056051;28;20112;-65
2021/09/12 03:28:11;;;;;;;4.25;2.20;;;;;;;22.12;60.13;101700.22;5054695;28;20017;-65
2021/09/12 03:30:36;;;;;;;5.32;2.42;;;;;;;22.12;60.17;101706.34;5055880;28;20396;-66
2021/09/12 03:33:02;;;;;;;5.13;2.28;;;;;;;22.13;59.85;101699.22;5055595;28;20061;-66
2021/09/12 03:35:27;;;;;;;4.60;2.42;;;;;;;22.10;59.95;101703.84;5055290;28;20024;-65
2021/09/12 03:37:53;;;;;;;4.57;2.50;;;;;;;22.10;60.02;101703.84;5055467;28;20116;-65
2021/09/12 03:40:18;;;;;;;4.63;2.17;;;;;;;22.08;59.67;101699.66;5055710;28;20021;-64
2021/09/12 03:42:43;;;;;;;3.72;2.05;;;;;;;22.09;59.83;101704.78;5054907;28;20021;-65
2021/09/12 03:45:09;;;;;;;4.75;2.10;;;;;;;22.09;60.13;101699.47;5055443;28;20025;-66
2021/09/12 03:47:34;;;;;;;4.18;2.05;;;;;;;22.08;59.54;101697.81;5055225;28;20049;-65
2021/09/12 03:50:00;;;;;;;4.23;2.00;;;;;;;22.08;59.46;101697.00;5054391;28;20024;-66
2021/09/12 03:52:25;;;;;;;5.00;2.38;;;;;;;22.06;59.79;101696.25;5055360;28;20289;-65
2021/09/12 03:54:50;;;;;;;5.43;2.27;;;;;;;22.08;59.41;101699.66;5055053;28;20021;-65
2021/09/12 03:57:15;;;;;;;5.73;2.17;;;;;;;22.07;59.67;101701.44;5054549;28;20289;-65
2021/09/12 03:59:44;;;;;;;3.87;2.00;;;;;;;22.06;59.46;101697.13;5055618;28;20745;-65
2021/09/12 04:02:09;;;;;;;4.88;2.38;;;;;;;22.05;59.42;101695.44;5055131;28;20356;-65
2021/09/12 04:04:34;;;;;;;4.63;2.03;;;;;;;22.06;59.74;101693.59;5054440;28;20108;-65
2021/09/12 04:07:00;;;;;;;3.87;1.97;;;;;;;22.05;59.65;101694.59;5054843;28;20301;-65
2021/09/12 04:09:25;;;;;;;4.23;2.00;;;;;;;22.03;59.44;101700.03;5054708;28;20033;-65
2021/09/12 04:11:50;;;;;;;3.97;1.80;;;;;;;22.04;59.52;101698.22;5054398;28;20344;-66
2021/09/12 04:14:15;;;;;;;4.10;2.07;;;;;;;22.03;59.51;101700.03;5055202;28;20082;-66
2021/09/12 04:16:43;;;;;;;5.50;2.00;;;;;;;22.02;59.10;101706.31;5054390;28;20845;-66
2021/09/12 04:19:11;;;;;;;4.25;2.03;;;;;;;22.02;59.50;101706.31;5054743;28;20664;-65
2021/09/12 04:21:37;;;;;;;4.78;2.08;;;;;;;22.02;59.16;101701.00;5055061;28;20111;-66
2021/09/12 04:24:02;;;;;;;5.50;2.25;;;;;;;22.03;59.25;101701.81;5053809;28;20112;-65
2021/09/12 04:26:27;;;;;;;4.47;2.00;;;;;;;22.00;58.86;101700.28;5054269;28;20124;-65
2021/09/12 04:28:53;;;;;;;4.22;2.10;;;;;;;22.02;59.06;101697.50;5054706;28;20025;-65
2021/09/12 04:31:18;;;;;;;4.32;2.13;;;;;;;22.01;58.85;101699.31;5054177;28;20036;-65
2021/09/12 04:33:43;;;;;;;3.70;1.88;;;;;;;22.00;58.87;101712.69;5054761;28;20469;-65
2021/09/12 04:36:11;;;;;;;4.80;2.00;;;;;;;22.01;58.90;101709.91;5054447;28;20040;-66
2021/09/12 04:38:36;;;;;;;4.50;1.90;;;;;;;22.00;59.10;101708.25;5053901;28;20029;-65
2021/09/12 04:41:02;;;;;;;3.95;1.90;;;;;;;21.99;58.86;101711.03;5054238;28;20100;-65
2021/09/12 04:43:27;;;;;;;5.15;2.05;;;;;;;21.99;58.88;101717.19;5054463;28;20025;-65
2021/09/12 04:45:55;;;;;;;3.55;1.60;;;;;;;22.00;58.70;101715.34;5053703;28;20031;-65
2021/09/12 04:48:20;;;;;;;4.32;1.77;;;;;;;21.98;58.97;101720.78;5054191;28;20049;-66
2021/09/12 04:50:46;;;;;;;5.03;2.28;;;;;;;21.98;58.87;101720.78;5054446;28;20021;-65
2021/09/12 04:53:11;;;;;;;3.80;1.90;;;;;;;21.98;58.81;101719.97;5053219;28;20021;-66
2021/09/12 04:55:36;;;;;;;3.92;1.85;;;;;;;21.97;58.90;101724.44;5054185;28;20044;-66
2021/09/12 04:58:04;;;;;;;4.18;1.90;;;;;;;21.96;58.42;101722.75;5054098;28;20032;-66
2021/09/12 05:00:30;;;;;;;3.90;2.00;;;;;;;21.96;58.81;101716.59;5053771;28;20017;-65
2021/09/12 05:02:55;;;;;;;3.58;1.95;;;;;;;21.95;58.87;101723.69;5054050;28;20491;-65
2021/09/12 05:05:44;;;;;;;3.70;1.90;;;;;;;21.94;58.72;101716.72;5054438;28;20021;-65
2021/09/12 05:08:12;;;;;;;4.03;1.92;;;;;;;21.95;58.52;101720.22;5054373;28;20033;-65
2021/09/12 05:10:37;;;;;;;5.32;1.98;;;;;;;21.95;58.36;101717.56;5054589;28;20070;-65
2021/09/12 05:13:05;;;;;;;3.33;1.55;;;;;;;21.93;58.54;101726.47;5053139;28;20380;-65
2021/09/12 05:15:30;;;;;;;3.97;1.70;;;;;;;21.93;58.55;101721.16;5054436;28;20025;-65
2021/09/12 05:17:58;;;;;;;3.10;1.58;;;;;;;21.92;58.58;101727.47;5053955;28;20087;-65
2021/09/12 05:20:24;;;;;;;3.92;1.90;;;;;;;21.92;58.45;101724.81;5055235;28;20021;-65
2021/09/12 05:22:50;;;;;;;5.40;2.28;;;;;;;21.92;58.63;101727.47;5055157;28;20067;-66
2021/09/12 05:25:15;;;;;;;3.72;1.58;;;;;;;21.92;58.33;101734.56;5057262;28;20070;-65
2021/09/12 05:27:40;;;;;;;3.22;1.65;;;;;;;21.91;58.49;101731.09;5053912;28;20066;-65
2021/09/12 05:30:06;;;;;;;3.72;1.73;;;;;;;21.89;58.17;101729.53;5053651;28;20067;-65
2021/09/12 05:32:31;;;;;;;3.80;1.60;;;;;;;21.90;58.44;101726.75;5053329;28;20186;-65
2021/09/12 05:34:57;;;;;;;3.55;1.63;;;;;;;21.90;58.31;101731.22;5052649;28;20468;-65
2021/09/12 05:37:23;;;;;;;3.60;1.70;;;;;;;21.90;58.35;101731.22;5053850;28;20029;-65
2021/09/12 05:39:48;;;;;;;4.00;1.80;;;;;;;21.89;58.37;101727.72;5052648;28;20725;-66
2021/09/12 05:42:13;;;;;;;4.03;1.70;;;;;;;21.88;58.07;101726.03;5052935;28;20021;-65
2021/09/12 05:44:38;;;;;;;3.45;1.52;;;;;;;21.89;58.26;101725.06;5053457;28;20348;-66
2021/09/12 05:47:04;;;;;;;5.03;1.60;;;;;;;21.88;58.28;101722.53;5052890;28;20074;-66
2021/09/12 05:49:29;;;;;;;4.57;1.57;;;;;;;21.88;58.29;101726.03;5052542;28;20093;-66
2021/09/12 05:51:55;;;;;;;4.30;2.10;;;;;;;21.87;58.29;101734.13;5052719;28;20282;-66
2021/09/12 05:54:20;;;;;;;2.55;1.58;;;;;;;21.88;57.91;101736.66;5052972;28;20025;-65
2021/09/12 05:56:48;;;;;;;4.50;1.88;;;;;;;21.88;57.93;101739.28;5052453;28;20025;-65
2021/09/12 05:59:13;;;;;;;3.50;1.58;;;;;;;21.88;57.93;101738.47;5053184;28;20373;-66
2021/09/12 06:01:38;;;;;;;3.58;1.55;;;;;;;21.87;58.27;101737.63;5053006;28;20021;-66
2021/09/12 06:04:04;;;;;;;3.63;1.70;;;;;;;21.87;58.17;101737.63;5051849;28;20082;-65
2021/09/12 06:06:29;;;;;;;3.92;1.50;;;;;;;21.88;58.08;101743.78;5052788;28;20603;-65
2021/09/12 06:08:54;;;;;;;3.87;1.70;;;;;;;21.87;58.29;101734.97;5052885;28;20021;-66
2021/09/12 06:11:20;;;;;;;3.65;1.60;;;;;;;21.88;57.86;101741.13;5052335;28;20861;-66
2021/09/12 06:13:45;;;;;;;4.25;1.77;;;;;;;21.89;58.17;101742.81;5052850;28;20028;-66
2021/09/12 06:16:10;;;;;;;4.80;1.70;;;;;;;21.88;58.08;101743.78;5051801;28;20025;-66
2021/09/12 06:18:38;;;;;;;4.65;1.70;;;;;;;21.87;58.20;101734.97;5052837;28;20266;-66
2021/09/12 06:21:04;;;;;;;3.85;1.80;;;;;;;21.88;57.88;101741.13;5052405;28;20025;-66
2021/09/12 06:23:31;;;;;;;3.70;1.50;;;;;;;21.88;58.00;101749.91;5052184;28;20104;-65
2021/09/12 06:25:56;;;;;;;4.18;1.75;;;;;;;21.87;58.05;101745.59;5052962;28;20116;-66
2021/09/12 06:28:22;;;;;;;3.85;1.50;;;;;;;21.87;57.91;101753.56;5054752;28;20488;-66
2021/09/12 06:30:48;;;;;;;2.65;1.40;;;;;;;21.87;57.87;101745.59;5054163;28;20036;-66
2021/09/12 06:33:13;;;;;;;2.92;1.42;;;;;;;21.88;58.05;101746.44;5054727;28;20056;-65
2021/09/12 06:35:38;;;;;;;4.57;1.63;;;;;;;21.88;57.86;101752.56;5053830;28;20025;-66
2021/09/12 06:38:03;;;;;;;3.15;1.50;;;;;;;21.88;58.12;101749.91;5052632;28;20412;-65
2021/09/12 06:40:30;;;;;;;6.03;1.60;;;;;;;21.89;58.19;101756.91;5053028;28;20021;-66
2021/09/12 06:43:00;;;;;;;3.08;1.23;;;;;;;21.91;57.95;101765.59;5053153;28;20029;-64
2021/09/12 06:45:26;;;;;;;3.53;1.73;;;;;;;21.91;58.02;101751.47;5052631;28;20032;-66
2021/09/12 06:47:53;;;;;;;4.38;1.67;;;;;;;21.89;57.86;101756.91;5052593;28;20033;-64
2021/09/12 06:50:19;;;;;;;4.35;1.60;;;;;;;21.89;58.25;101745.47;5052538;28;20033;-66
2021/09/12 06:52:44;;;;;;;5.05;1.63;;;;;;;21.88;58.12;101744.59;5051933;28;20052;-66
2021/09/12 06:55:10;;;;;;;4.45;1.88;;;;;;;21.90;58.59;101745.34;5053838;28;20056;-68
2021/09/12 06:57:35;;;;;;;4.18;1.67;;;;;;;21.95;58.79;101746.75;5054319;28;20025;-65
2021/09/12 07:00:00;;;;;;;6.47;1.35;;;;;;;21.96;58.69;101748.44;5052379;28;20033;-65
2021/09/12 07:02:26;;;;;;;3.72;1.60;;;;;;;21.98;58.66;101747.31;5052782;28;20070;-66
2021/09/12 07:04:51;;;;;;;4.40;1.47;;;;;;;21.99;58.66;101749.03;5051179;28;20400;-65
2021/09/12 07:07:19;;;;;;;4.05;1.50;;;;;;;21.99;58.57;101743.72;5052960;28;20278;-65
2021/09/12 07:09:44;;;;;;;2.80;1.48;;;;;;;22.01;58.99;101743.59;5053108;28;20029;-66
2021/09/12 07:12:10;;;;;;;3.83;1.42;;;;;;;22.03;59.11;101755.78;5052378;28;20025;-65
2021/09/12 07:14:35;;;;;;;3.88;1.27;;;;;;;22.04;59.26;101749.47;5051590;28;20055;-65
2021/09/12 07:17:00;;;;;;;3.60;1.48;;;;;;;22.06;59.08;101758.16;5051743;28;20024;-66
2021/09/12 07:19:26;;;;;;;5.05;1.60;;;;;;;22.08;59.12;101758.03;5051582;28;20491;-67
2021/09/12 07:21:54;;;;;;;5.28;1.60;;;;;;;22.08;59.20;101755.38;5052120;28;20017;-63
2021/09/12 07:24:19;;;;;;;4.35;1.63;;;;;;;22.09;58.96;101757.88;5052328;28;20017;-64
2021/09/12 07:26:44;;;;;;;6.23;1.80;;;;;;;22.09;59.25;101747.25;5051075;28;20155;-64
2021/09/12 07:29:09;;;;;;;5.30;1.70;;;;;;;22.12;59.45;101745.34;5051849;28;20274;-65
2021/09/12 07:31:35;;;;;;;5.30;1.70;;;;;;;22.12;59.52;101743.53;5051935;28;20075;-64
2021/09/12 07:34:02;;;;;;;3.72;1.42;;;;;;;22.12;59.28;101738.22;5051138;28;20286;-60
2021/09/12 07:36:29;;;;;;;6.00;1.58;;;;;;;22.15;59.34;101740.59;5052401;28;20039;-64
2021/09/12 07:38:54;;;;;;;3.78;1.35;;;;;;;22.17;59.40;101738.66;5052022;28;20092;-62
2021/09/12 07:41:20;;;;;;;3.13;1.30;;;;;;;22.17;59.41;101743.97;5051654;28;20120;-63
2021/09/12 07:43:47;;;;;;;5.80;1.70;;;;;;;22.19;59.58;101743.84;5052501;28;20017;-63
2021/09/12 07:46:13;;;;;;;6.05;1.70;;;;;;;22.20;59.71;101745.53;5052197;28;20029;-62
2021/09/12 07:48:38;;;;;;;4.17;1.40;;;;;;;22.21;59.40;101739.25;5051144;28;20239;-61
2021/09/12 07:51:05;;;;;;;4.03;1.50;;;;;;;22.22;59.71;101743.59;5052084;28;20057;-63
2021/09/12 07:53:31;;;;;;;4.28;1.65;;;;;;;22.21;59.42;101737.44;5051873;28;20501;-62
2021/09/12 07:55:56;;;;;;;4.43;1.42;;;;;;;22.22;59.71;101740.94;5050807;28;20021;-62
2021/09/12 07:58:21;;;;;;;5.53;1.40;;;;;;;22.23;59.50;101742.63;5051881;28;20021;-62
2021/09/12 08:00:46;;;;;;;3.70;1.50;;;;;;;22.23;59.82;101740.78;5051818;28;20266;-62
2021/09/12 08:03:12;;;;;;;4.05;1.50;;;;;;;22.24;59.35;101749.63;5053462;28;20284;-65
2021/09/12 08:05:37;;;;;;;2.60;1.15;;;;;;;22.26;59.49;101747.66;5055712;28;20107;-63
2021/09/12 08:08:03;;;;;;;4.20;1.40;;;;;;;22.24;59.48;101741.66;5055300;28;20025;-65
2021/09/12 08:10:31;;;;;;;3.45;1.50;;;;;;;22.26;59.73;101747.66;5054831;28;20025;-63
2021/09/12 08:12:59;;;;;;;2.75;1.25;;;;;;;22.27;59.60;101752.84;5054890;28;20102;-65
2021/09/12 08:15:25;;;;;;;3.00;1.40;;;;;;;22.27;59.65;101752.84;5055190;28;20048;-64
2021/09/12 08:17:50;;;;;;;3.92;1.50;;;;;;;22.28;59.45;101753.69;5054351;28;20433;-64
2021/09/12 08:20:15;;;;;;;3.97;1.40;;;;;;;22.29;59.32;101766.00;5055206;28;20086;-63
2021/09/12 08:22:41;;;;;;;4.00;1.48;;;;;;;22.28;59.46;101766.97;5054648;28;20048;-65
2021/09/12 08:25:07;;;;;;;3.78;1.60;;;;;;;22.28;59.54;101766.97;5054891;28;20329;-65
2021/09/12 08:27:32;;;;;;;6.57;1.42;;;;;;;22.30;59.64;101772.19;5054985;28;20057;-64
2021/09/12 08:29:57;;;;;;;4.32;1.38;;;;;;;22.30;59.51;101785.44;5053711;28;20049;-65
2021/09/12 08:32:23;;;;;;;4.72;1.33;;;;;;;22.28;59.77;101781.06;5055022;28;20045;-64
2021/09/12 08:34:48;;;;;;;3.47;1.42;;;;;;;22.30;59.70;101780.97;5054674;28;20083;-62
2021/09/12 08:37:13;;;;;;;4.38;1.38;;;;;;;22.30;59.66;101783.63;5054245;28;20021;-62
2021/09/12 08:39:39;;;;;;;4.22;1.60;;;;;;;22.32;59.45;101778.19;5054380;28;20029;-63
2021/09/12 08:42:04;;;;;;;4.25;1.40;;;;;;;22.31;59.40;101773.88;5053806;28;20028;-63
2021/09/12 08:44:30;;;;;;;4.38;1.50;;;;;;;22.32;59.43;101775.53;5053812;28;20021;-63
2021/09/12 08:46:55;;;;;;;5.13;1.40;;;;;;;22.30;59.64;101778.31;5053770;28;20400;-63
2021/09/12 08:49:21;;;;;;;5.50;1.52;;;;;;;22.30;59.42;101780.97;5054236;28;20380;-63
2021/09/12 08:51:46;;;;;;;3.88;1.50;;;;;;;22.29;59.69;101781.94;5053529;28;20395;-66
2021/09/12 08:54:11;;;;;;;3.92;1.60;;;;;;;22.28;59.63;101775.75;5053684;28;20035;-65
2021/09/12 08:56:37;;;;;;;4.50;1.45;;;;;;;22.26;59.52;101772.41;5054061;28;20430;-64
2021/09/12 08:59:02;;;;;;;5.53;1.80;;;;;;;22.26;59.79;101775.06;5052715;28;20029;-66
2021/09/12 09:01:32;;;;;;;7.00;1.42;;;;;;;22.24;59.54;101771.69;5054123;28;20017;-66
2021/09/12 09:04:03;;;;;;;5.60;1.70;;;;;;;22.26;59.72;101774.22;5053805;28;20036;-64
2021/09/12 09:06:36;;;;;;;3.33;1.40;;;;;;;22.26;59.73;101780.38;5053000;28;20476;-64
2021/09/12 09:09:03;;;;;;;3.42;1.33;;;;;;;22.25;59.84;101780.50;5053311;28;20558;-65
2021/09/12 09:11:39;;;;;;;3.67;1.52;;;;;;;22.26;59.77;101782.19;5053852;28;20075;-65
2021/09/12 09:14:20;;;;;;;3.20;1.42;;;;;;;22.26;59.56;101777.72;5052445;28;20043;-65
2021/09/12 09:16:51;;;;;;;3.35;1.40;;;;;;;22.26;59.67;101779.53;5054143;28;20165;-66
2021/09/12 09:19:17;;;;;;;3.50;1.40;;;;;;;22.26;59.85;101783.03;5054902;28;20504;-66
2021/09/12 09:21:47;;;;;;;3.85;1.48;;;;;;;22.24;59.75;101782.31;5058524;28;20028;-65
2021/09/12 09:24:22;;;;;;;6.53;1.90;;;;;;;22.29;60.30;101781.94;5054170;28;20029;-66
2021/09/12 09:26:50;;;;;;;3.85;1.45;;;;;;;22.28;60.02;101782.91;5052730;28;20057;-63
2021/09/12 09:29:25;;;;;;;5.00;1.63;;;;;;;22.30;59.92;101788.94;5053218;28;20068;-64
2021/09/12 09:32:03;;;;;;;5.07;1.83;;;;;;;22.31;59.89;101784.50;5052332;28;20021;-65
2021/09/12 09:34:28;;;;;;;4.75;1.70;;;;;;;22.31;60.18;101792.47;5054172;28;20025;-65
2021/09/12 09:37:07;;;;;;;4.35;1.73;;;;;;;22.32;59.92;101792.34;5054986;28;20036;-67
2021/09/12 09:39:41;;;;;;;4.18;1.40;;;;;;;22.33;60.08;101793.16;5054245;28;20112;-64
2021/09/12 09:42:06;;;;;;;4.47;1.80;;;;;;;22.33;60.10;101793.16;5052818;28;20029;-67
2021/09/12 09:44:32;;;;;;;6.15;1.67;;;;;;;22.32;60.25;101796.78;5053548;28;20029;-65
2021/09/12 09:47:08;;;;;;;5.60;1.70;;;;;;;22.31;60.08;101793.28;5052844;28;20508;-62
2021/09/12 09:49:37;;;;;;;5.32;1.80;;;;;;;22.28;59.88;101798.81;5053385;28;20021;-62
2021/09/12 09:52:03;;;;;;;6.35;1.98;;;;;;;22.27;59.81;101791.81;5053049;28;20048;-63
2021/09/12 09:54:32;;;;;;;5.03;1.75;;;;;;;22.28;59.98;101799.66;5052919;28;20028;-69
2021/09/12 09:56:58;;;;;;;4.97;2.42;;;;;;;22.28;60.07;101794.34;5052864;28;20471;-64
2021/09/12 09:59:26;;;;;;;4.03;2.05;;;;;;;22.28;59.90;101794.34;5052945;28;20108;-65
2021/09/12 10:01:53;;;;;;;7.30;2.00;;;;;;;22.27;59.99;101790.03;5052222;28;20063;-64
2021/09/12 10:04:28;;;;;;;4.20;1.60;;;;;;;22.29;60.32;101795.22;5053207;28;20051;-65
2021/09/12 10:06:54;;;;;;;5.40;1.85;;;;;;;22.28;59.93;101781.06;5052785;28;20100;-66
2021/09/12 10:09:20;;;;;;;5.57;2.05;;;;;;;22.27;60.12;101782.06;5052096;28;20016;-65
2021/09/12 10:11:50;;;;;;;5.45;2.00;;;;;;;22.27;60.04;101784.72;5052743;28;20040;-65
2021/09/12 10:14:20;;;;;;;4.80;1.75;;;;;;;22.29;60.23;101787.25;5052607;28;20074;-66
2021/09/12 10:16:48;;;;;;;4.90;1.80;;;;;;;22.28;60.33;101789.03;5050385;28;20052;-65
2021/09/12 10:19:30;;;;;;;5.13;1.77;;;;;;;22.30;60.20;101786.28;5051594;28;20465;-67
2021/09/12 10:21:58;;;;;;;5.05;2.00;;;;;;;22.30;60.17;101786.28;5051048;28;20056;-68
2021/09/12 10:24:25;;;;;;;5.15;2.25;;;;;;;22.31;60.06;101785.31;5052713;28;20037;-68
2021/09/12 10:26:50;;;;;;;7.00;1.85;;;;;;;22.32;59.94;101780.84;5054700;28;20091;-69
2021/09/12 10:29:46;;;;;;;4.63;1.75;;;;;;;22.34;59.98;101784.22;5052114;28;20025;-67
2021/09/12 10:32:31;;;;;;;5.68;2.13;;;;;;;22.33;59.96;101779.88;5051885;28;20033;-64
2021/09/12 10:35:17;;;;;;;5.63;2.03;;;;;;;22.35;60.01;101769.97;5052395;28;20040;-61
2021/09/12 10:38:08;;;;;;;4.40;1.80;;;;;;;22.36;60.19;101776.97;5052055;28;20025;-61
2021/09/12 10:40:45;;;;;;;6.35;2.03;;;;;;;22.35;59.98;101776.13;5053974;28;20025;-62
2021/09/12 10:43:26;;;;;;;4.97;1.83;;;;;;;22.36;60.15;101784.94;5052842;28;20040;-62
2021/09/12 10:46:04;;;;;;;4.35;1.90;;;;;;;22.36;59.79;101775.16;5052422;28;20037;-64
2021/09/12 10:48:44;;;;;;;5.20;1.92;;;;;;;22.38;59.99;101775.00;5052300;28;20041;-64
2021/09/12 10:51:10;;;;;;;4.30;1.95;;;;;;;22.38;60.08;101778.53;5051636;28;20017;-65
2021/09/12 10:54:01;;;;;;;5.60;2.20;;;;;;;22.40;60.26;101781.91;5052074;28;20040;-64
2021/09/12 10:56:34;;;;;;;4.78;2.13;;;;;;;22.41;59.78;101775.63;5051961;28;20124;-64
2021/09/12 10:59:10;;;;;;;6.00;2.15;;;;;;;22.44;60.16;101778.00;5051215;28;20029;-64
2021/09/12 11:01:45;;;;;;;6.88;2.17;;;;;;;22.46;59.88;101770.75;5052490;28;20427;-63
2021/09/12 11:04:12;;;;;;;6.10;2.33;;;;;;;22.48;59.97;101783.03;5052643;28;20099;-62
2021/09/12 11:06:39;;;;;;;7.15;2.20;;;;;;;22.52;60.45;101779.16;5052065;28;20469;-63
2021/09/12 11:09:25;;;;;;;4.97;2.08;;;;;;;22.50;60.46;101787.25;5051582;28;20459;-65
2021/09/12 11:11:55;;;;;;;6.80;2.38;;;;;;;22.48;60.13;101783.91;5050861;28;20041;-64
2021/09/12 11:14:21;;;;;;;5.95;2.30;;;;;;;22.49;60.23;101790.88;5051845;28;20041;-64
2021/09/12 11:16:49;;;;;;;5.55;2.13;;;;;;;22.49;60.50;101785.56;5052508;28;20017;-64
2021/09/12 11:19:15;;;;;;;7.32;2.70;;;;;;;22.51;60.22;101788.09;5051519;28;20500;-64
2021/09/12 11:21:49;;;;;;;4.57;2.17;;;;;;;22.51;60.37;101777.47;5052824;28;20390;-65
2021/09/12 11:24:27;;;;;;;6.65;2.22;;;;;;;22.52;60.31;101776.50;5052389;28;20025;-65